Time;durP1;ratioP1;P1;durP2;ratioP2;P2;SDS_P1;SDS_P2;PMS_P1;PMS_P2;Temp;Humidity;BMP_temperature;BMP_pressure;BME280_temperature;BME280_humidity;BME280_pressure;Samples;Min_cycle;Max_cycle;Signal;HPM_P1;HPM_P2
2023/07/10 00:01:53;;;;;;;16.25;5.93;;;;;;;21.67;93.25;101874.75;5104558;28;20052;-65
2023/07/10 00:04:21;;;;;;;13.80;5.55;;;;;;;21.68;93.47;101868.06;5115308;28;20479;-64
2023/07/10 00:06:49;;;;;;;15.95;5.68;;;;;;;21.66;93.27;101856.44;5118256;28;20047;-65
2023/07/10 00:09:16;;;;;;;15.73;6.55;;;;;;;21.64;93.59;101857.91;5116807;28;20063;-64
2023/07/10 00:11:45;;;;;;;14.50;6.00;;;;;;;21.63;93.73;101857.09;5117679;28;20043;-64
2023/07/10 00:14:23;;;;;;;11.32;5.55;;;;;;;21.66;93.75;101853.69;5117741;28;20047;-65
2023/07/10 00:16:52;;;;;;;14.40;5.60;;;;;;;21.67;93.64;101857.25;5116357;28;20047;-65
2023/07/10 00:19:20;;;;;;;15.60;5.72;;;;;;;21.63;93.98;101873.75;5116435;28;20401;-65
2023/07/10 00:21:51;;;;;;;15.50;5.53;;;;;;;21.66;94.04;101875.06;5107404;28;20044;-66
2023/07/10 00:24:19;;;;;;;14.80;5.43;;;;;;;21.68;94.02;101870.81;5096965;28;20050;-66
2023/07/10 00:26:47;;;;;;;13.77;5.35;;;;;;;21.74;93.90;101867.91;5102027;28;20110;-66
2023/07/10 00:29:26;;;;;;;14.27;5.80;;;;;;;21.74;93.83;101876.22;5086298;28;20090;-64
2023/07/10 00:31:54;;;;;;;14.75;6.20;;;;;;;21.68;93.71;101859.72;5117067;28;20052;-65
2023/07/10 00:34:25;;;;;;;11.75;5.78;;;;;;;21.63;93.97;101850.75;5117559;28;20104;-65
2023/07/10 00:36:53;;;;;;;14.32;6.38;;;;;;;21.58;93.96;101861.97;5117876;28;20085;-65
2023/07/10 00:39:24;;;;;;;13.18;6.30;;;;;;;21.57;94.32;101868.63;5114984;28;20070;-66
2023/07/10 00:41:59;;;;;;;12.13;6.13;;;;;;;21.58;94.93;101854.47;5117555;28;20096;-65
2023/07/10 00:44:42;;;;;;;15.70;7.10;;;;;;;21.58;95.49;101848.91;5116214;28;20076;-66
2023/07/10 00:47:39;;;;;;;16.63;7.22;;;;;;;21.60;95.94;101866.06;5116039;28;20055;-65
2023/07/10 00:50:35;;;;;;;14.70;6.90;;;;;;;21.56;96.28;101869.78;5115648;28;20396;-64
2023/07/10 00:53:09;;;;;;;13.60;6.68;;;;;;;21.52;97.29;101864.03;5101037;28;20520;-64
2023/07/10 00:55:39;;;;;;;14.40;7.32;;;;;;;21.41;97.44;101860.72;5116691;28;20085;-64
2023/07/10 00:58:37;;;;;;;17.85;6.70;;;;;;;21.28;97.40;101870.69;5095816;28;20085;-64
2023/07/10 01:01:07;;;;;;;12.98;6.38;;;;;;;21.17;96.68;101871.28;5116706;28;20050;-64
2023/07/10 01:03:39;;;;;;;14.95;6.35;;;;;;;21.00;97.75;101878.31;5087361;28;20059;-65
2023/07/10 01:06:33;;;;;;;15.82;6.40;;;;;;;20.97;98.41;101869.81;5094275;28;20058;-64
2023/07/10 01:09:04;;;;;;;15.77;6.57;;;;;;;21.02;98.55;101872.44;5115415;28;20100;-65
2023/07/10 01:11:35;;;;;;;14.48;6.07;;;;;;;21.09;98.02;101869.25;5118665;28;20099;-63
2023/07/10 01:14:04;;;;;;;15.75;6.18;;;;;;;21.15;97.92;101873.56;5126654;28;20043;-63
2023/07/10 01:16:33;;;;;;;14.98;6.20;;;;;;;21.16;97.56;101873.22;5119768;28;20114;-64
2023/07/10 01:19:00;;;;;;;14.40;6.40;;;;;;;21.17;97.51;101861.00;5096811;28;20044;-65
2023/07/10 01:21:30;;;;;;;15.00;6.13;;;;;;;21.08;95.98;101860.13;5082404;28;20046;-60
2023/07/10 01:24:04;;;;;;;13.65;5.93;;;;;;;21.01;96.92;101862.50;5111570;28;20090;-64
2023/07/10 01:26:35;;;;;;;13.35;6.00;;;;;;;21.02;97.57;101886.31;5128478;28;20114;-60
2023/07/10 01:29:04;;;;;;;13.60;5.90;;;;;;;21.05;97.51;101875.44;5119310;28;20448;-66
2023/07/10 01:31:31;;;;;;;11.90;6.07;;;;;;;21.08;97.09;101885.06;5115525;28;20491;-65
2023/07/10 01:34:02;;;;;;;13.25;6.07;;;;;;;21.08;96.52;101882.28;5099115;28;20048;-65
2023/07/10 01:36:35;;;;;;;12.40;5.47;;;;;;;21.08;96.14;101882.28;5114523;28;20764;-65
2023/07/10 01:39:09;;;;;;;11.63;5.70;;;;;;;21.06;96.02;101876.25;5115125;28;20452;-65
2023/07/10 01:41:39;;;;;;;11.70;5.82;;;;;;;20.99;95.00;101873.09;5115171;28;20096;-65
2023/07/10 01:44:28;;;;;;;11.93;5.53;;;;;;;20.95;95.72;101864.59;5081609;28;20039;-64
2023/07/10 01:46:57;;;;;;;13.18;5.30;;;;;;;20.93;94.70;101863.28;5113950;28;20403;-65
2023/07/10 01:49:33;;;;;;;12.00;5.07;;;;;;;20.90;94.36;101858.34;5113279;28;20046;-65
2023/07/10 01:52:03;;;;;;;11.10;4.80;;;;;;;20.92;94.63;101861.63;5114971;28;20112;-65
2023/07/10 01:54:31;;;;;;;11.90;5.20;;;;;;;20.94;94.36;101864.91;5097859;28;20051;-66
2023/07/10 01:56:59;;;;;;;11.02;5.47;;;;;;;20.93;94.31;101863.28;5114684;28;20047;-65
2023/07/10 01:59:27;;;;;;;12.38;5.20;;;;;;;20.91;93.64;101868.31;5112456;28;20539;-66
2023/07/10 02:01:57;;;;;;;11.43;4.88;;;;;;;20.87;94.29;101878.34;5114788;28;20044;-64
2023/07/10 02:04:25;;;;;;;15.35;5.63;;;;;;;20.88;94.56;101871.69;5114200;28;20108;-64
2023/07/10 02:06:54;;;;;;;12.98;5.40;;;;;;;20.91;94.07;101874.66;5081101;28;20048;-65
2023/07/10 02:09:27;;;;;;;11.35;5.32;;;;;;;20.92;93.73;101875.47;5096408;28;20043;-65
2023/07/10 02:11:55;;;;;;;10.20;4.63;;;;;;;20.92;93.81;101858.84;5094593;28;20055;-64
2023/07/10 02:14:23;;;;;;;16.90;5.32;;;;;;;20.94;93.62;101862.94;5094686;28;20052;-65
2023/07/10 02:16:51;;;;;;;11.38;4.85;;;;;;;20.96;93.52;101870.94;5094612;28;20548;-65
2023/07/10 02:19:20;;;;;;;12.40;4.43;;;;;;;20.96;93.42;101859.88;5090483;28;20054;-65
2023/07/10 02:21:48;;;;;;;12.55;4.63;;;;;;;20.97;93.17;101867.88;5113060;28;20046;-65
2023/07/10 02:24:17;;;;;;;9.25;4.30;;;;;;;21.00;92.97;101869.19;5114349;28;20047;-65
2023/07/10 02:26:45;;;;;;;10.85;4.28;;;;;;;21.04;92.57;101867.41;5114140;28;20491;-65
2023/07/10 02:29:12;;;;;;;9.80;4.18;;;;;;;21.07;92.48;101872.34;5110718;28;20036;-65
2023/07/10 02:31:40;;;;;;;7.10;3.70;;;;;;;21.10;92.36;101879.22;5114841;28;20052;-64
2023/07/10 02:34:08;;;;;;;7.65;3.67;;;;;;;21.10;91.65;101877.25;5114163;28;20044;-64
2023/07/10 02:36:36;;;;;;;8.18;3.42;;;;;;;21.12;91.62;101880.53;5114333;28;20084;-65
2023/07/10 02:39:04;;;;;;;8.82;3.47;;;;;;;21.15;91.48;101879.09;5113139;28;20047;-66
2023/07/10 02:41:31;;;;;;;7.60;3.67;;;;;;;21.17;91.54;101876.84;5113796;28;20040;-65
2023/07/10 02:43:59;;;;;;;9.10;3.78;;;;;;;21.19;91.76;101880.09;5115177;28;20058;-62
2023/07/10 02:46:27;;;;;;;9.77;3.75;;;;;;;21.19;91.52;101869.84;5111983;28;20058;-65
2023/07/10 02:48:56;;;;;;;7.13;3.92;;;;;;;21.21;91.23;101872.28;5113913;28;20048;-64
2023/07/10 02:51:24;;;;;;;9.10;3.90;;;;;;;21.20;90.84;101874.22;5114488;28;20057;-65
2023/07/10 02:53:53;;;;;;;6.47;3.25;;;;;;;21.17;90.92;101880.41;5095857;28;20048;-65
2023/07/10 02:56:21;;;;;;;7.85;3.70;;;;;;;21.17;91.18;101876.84;5113655;28;20047;-65
2023/07/10 02:58:50;;;;;;;15.20;4.90;;;;;;;21.13;90.79;101893.25;5088739;28;20051;-64
2023/07/10 03:01:18;;;;;;;11.77;4.57;;;;;;;21.04;90.82;101900.66;5114472;28;20050;-65
2023/07/10 03:03:46;;;;;;;9.90;4.63;;;;;;;20.94;91.70;101900.91;5114775;28;20047;-64
2023/07/10 03:06:14;;;;;;;11.30;4.82;;;;;;;20.87;92.31;101906.06;5130266;27;20076;-65
2023/07/10 03:08:44;;;;;;;10.80;4.30;;;;;;;20.83;92.52;101906.69;5130308;27;20039;-64
2023/07/10 03:11:13;;;;;;;11.10;4.18;;;;;;;20.84;92.42;101901.97;5111933;28;20036;-65
2023/07/10 03:13:41;;;;;;;8.38;3.50;;;;;;;20.84;91.99;101896.44;5112234;27;20047;-65
2023/07/10 03:16:12;;;;;;;10.60;3.85;;;;;;;20.83;91.70;101892.84;5113518;28;20052;-64
2023/07/10 03:18:40;;;;;;;11.65;3.83;;;;;;;20.80;90.90;101896.22;5113663;28;20537;-65
2023/07/10 03:21:09;;;;;;;9.93;3.67;;;;;;;20.81;90.92;101897.06;5096045;28;20124;-65
2023/07/10 03:23:38;;;;;;;6.75;2.95;;;;;;;20.82;90.77;101909.75;5111961;28;20073;-65
2023/07/10 03:26:06;;;;;;;10.48;3.47;;;;;;;20.81;90.02;101913.69;5114638;28;20046;-65
2023/07/10 03:28:36;;;;;;;8.65;4.03;;;;;;;20.81;90.32;101914.50;5113800;28;20050;-66
2023/07/10 03:31:04;;;;;;;9.00;3.78;;;;;;;20.80;89.95;101923.91;5113362;28;20039;-65
2023/07/10 03:33:33;;;;;;;10.50;3.72;;;;;;;20.79;89.99;101916.75;5113218;28;20054;-65
2023/07/10 03:36:05;;;;;;;6.82;3.33;;;;;;;20.79;90.13;101918.72;5114188;28;20040;-64
2023/07/10 03:38:34;;;;;;;12.27;3.50;;;;;;;20.80;89.89;101921.16;5113910;28;20046;-64
2023/07/10 03:41:03;;;;;;;9.07;3.60;;;;;;;20.79;89.67;101921.47;5112687;28;20054;-65
2023/07/10 03:43:31;;;;;;;8.73;3.97;;;;;;;20.79;89.73;101927.81;5114192;28;20048;-65
2023/07/10 03:45:59;;;;;;;8.95;3.80;;;;;;;20.78;89.72;101930.91;5113534;28;20048;-65
2023/07/10 03:48:26;;;;;;;7.38;3.30;;;;;;;20.74;89.54;101941.78;5111604;28;20116;-65
2023/07/10 03:50:54;;;;;;;8.70;3.50;;;;;;;20.70;89.73;101934.41;5093768;28;20093;-65
2023/07/10 03:53:22;;;;;;;8.20;3.60;;;;;;;20.66;89.83;101936.16;5093892;28;20044;-65
2023/07/10 03:55:52;;;;;;;11.18;4.20;;;;;;;20.63;90.25;101926.50;5093398;28;20074;-65
2023/07/10 03:58:27;;;;;;;6.78;3.38;;;;;;;20.62;90.48;101916.56;5101273;28;20044;-66
2023/07/10 04:00:57;;;;;;;10.43;3.53;;;;;;;20.62;90.56;101933.19;5092701;28;20043;-64
2023/07/10 04:03:30;;;;;;;10.57;3.90;;;;;;;20.60;90.67;101935.44;5092294;28;20052;-65
2023/07/10 04:05:59;;;;;;;9.13;3.65;;;;;;;20.54;91.03;101942.16;5092373;28;20048;-65
2023/07/10 04:08:32;;;;;;;11.20;4.43;;;;;;;20.53;91.28;101937.78;5096409;28;20533;-65
2023/07/10 04:11:02;;;;;;;8.45;3.72;;;;;;;20.51;91.80;101942.78;5111447;28;20044;-65
2023/07/10 04:13:31;;;;;;;9.38;4.05;;;;;;;20.49;91.91;101945.88;5095778;28;20043;-65
2023/07/10 04:16:20;;;;;;;7.93;3.67;;;;;;;20.45;92.38;101950.41;5113730;28;20052;-65
2023/07/10 04:19:08;;;;;;;10.13;4.15;;;;;;;20.46;92.44;101957.56;5109727;28;20112;-65
2023/07/10 04:21:56;;;;;;;10.80;3.90;;;;;;;20.46;92.66;101956.75;5112485;28;20051;-65
2023/07/10 04:24:44;;;;;;;10.82;4.43;;;;;;;20.47;92.65;101964.75;5093479;28;20048;-65
2023/07/10 04:27:35;;;;;;;8.02;4.30;;;;;;;20.47;92.85;101966.69;5095431;28;20146;-65
2023/07/10 04:30:23;;;;;;;8.88;3.80;;;;;;;20.43;93.05;101958.19;5115469;28;20058;-66
2023/07/10 04:33:11;;;;;;;11.57;4.50;;;;;;;20.41;93.32;101958.47;5115651;28;20143;-65
2023/07/10 04:35:59;;;;;;;10.70;4.18;;;;;;;20.39;93.30;101957.97;5117042;28;20094;-65
2023/07/10 04:38:47;;;;;;;11.60;4.50;;;;;;;20.40;93.51;101956.03;5116645;28;20058;-65
2023/07/10 04:41:36;;;;;;;9.30;4.38;;;;;;;20.36;93.47;101963.31;5113722;28;20088;-65
2023/07/10 04:44:24;;;;;;;11.40;4.60;;;;;;;20.33;93.88;101948.13;5116765;28;20177;-65
2023/07/10 04:47:12;;;;;;;9.20;4.10;;;;;;;20.33;94.03;101948.13;5116341;28;20121;-65
2023/07/10 04:49:59;;;;;;;9.52;4.38;;;;;;;20.38;94.04;101956.34;5112706;28;20507;-65
2023/07/10 04:52:47;;;;;;;9.57;4.68;;;;;;;20.40;94.07;101961.56;5115362;27;20495;-65
2023/07/10 04:55:35;;;;;;;10.32;4.43;;;;;;;20.38;94.16;101961.88;5116234;28;20055;-65
2023/07/10 04:58:24;;;;;;;11.65;5.03;;;;;;;20.37;94.54;101962.16;5112545;28;20126;-64
2023/07/10 05:01:11;;;;;;;12.05;5.13;;;;;;;20.36;94.67;101963.31;5116353;28;20082;-65
2023/07/10 05:03:59;;;;;;;8.50;4.57;;;;;;;20.37;94.58;101968.53;5112914;28;20150;-65
2023/07/10 05:06:47;;;;;;;10.27;5.00;;;;;;;20.31;94.37;101968.94;5114023;28;20043;-65
2023/07/10 05:09:35;;;;;;;10.40;4.70;;;;;;;20.25;95.18;101972.91;5115044;28;20097;-65
2023/07/10 05:12:22;;;;;;;12.30;5.00;;;;;;;20.26;95.38;101972.63;5113311;28;20098;-65
2023/07/10 05:15:10;;;;;;;6.93;3.47;;;;;;;20.28;95.49;101978.69;5115408;28;20112;-66
2023/07/10 05:17:58;;;;;;;12.15;4.30;;;;;;;20.35;94.91;101973.56;5114691;28;20122;-65
2023/07/10 05:20:47;;;;;;;10.27;4.68;;;;;;;20.35;94.56;101967.22;5122039;28;20051;-64
2023/07/10 05:23:35;;;;;;;11.75;4.00;;;;;;;20.40;94.65;101981.75;5119574;28;20070;-65
2023/07/10 05:26:23;;;;;;;10.02;4.15;;;;;;;20.45;94.80;101978.09;5121637;28;20104;-61
2023/07/10 05:29:11;;;;;;;9.68;4.40;;;;;;;20.46;94.52;101984.44;5125991;28;20036;-63
2023/07/10 05:31:58;;;;;;;9.48;3.95;;;;;;;20.45;94.76;101983.63;5123473;28;20047;-65
2023/07/10 05:34:46;;;;;;;12.38;5.18;;;;;;;20.45;94.54;101982.81;5103503;28;20502;-65
2023/07/10 05:37:16;;;;;;;13.70;4.85;;;;;;;20.42;94.75;101987.00;5124687;28;20185;-62
2023/07/10 05:40:05;;;;;;;10.00;5.03;;;;;;;20.36;94.79;101986.25;5128495;28;20059;-65
2023/07/10 05:42:53;;;;;;;14.07;4.97;;;;;;;20.32;95.27;101985.22;5115569;28;20047;-63
2023/07/10 05:45:40;;;;;;;9.32;4.38;;;;;;;20.33;95.51;101992.41;5099160;28;20048;-66
2023/07/10 05:48:28;;;;;;;12.25;5.05;;;;;;;20.32;95.07;101984.41;5077688;28;20085;-66
2023/07/10 05:51:16;;;;;;;11.38;4.68;;;;;;;20.24;95.42;101987.91;4739927;28;10001295;-65
2023/07/10 05:54:04;;;;;;;12.77;4.30;;;;;;;20.31;95.17;101989.13;5091531;28;20485;-67
2023/07/10 05:56:51;;;;;;;8.32;3.88;;;;;;;20.32;94.87;101990.75;5091783;28;20141;-66
2023/07/10 05:59:40;;;;;;;11.82;5.28;;;;;;;20.32;94.95;101989.94;5107547;28;20059;-66
2023/07/10 06:02:28;;;;;;;13.40;4.97;;;;;;;20.24;94.88;101987.91;5091004;28;20048;-66
2023/07/10 06:05:16;;;;;;;10.90;4.13;;;;;;;20.16;95.38;101987.47;5106557;28;20052;-66
2023/07/10 06:08:04;;;;;;;8.48;3.83;;;;;;;20.25;95.85;101987.56;5118292;27;20047;-65
2023/07/10 06:10:52;;;;;;;8.57;3.53;;;;;;;20.37;95.29;101981.53;5096617;28;20137;-65
2023/07/10 06:13:39;;;;;;;12.20;4.28;;;;;;;20.51;93.79;101981.56;5096584;28;20134;-65
2023/07/10 06:16:28;;;;;;;12.68;4.95;;;;;;;20.53;93.14;101979.31;5110813;28;20047;-66
2023/07/10 06:19:00;;;;;;;8.45;4.47;;;;;;;20.49;92.18;101984.63;5091350;28;20116;-65
2023/07/10 06:21:48;;;;;;;11.75;5.78;;;;;;;20.41;92.26;101988.94;5103829;28;20048;-65
2023/07/10 06:24:35;;;;;;;11.27;4.60;;;;;;;20.35;92.93;101990.19;5113379;28;20052;-65
2023/07/10 06:27:23;;;;;;;17.55;5.45;;;;;;;20.46;93.26;101989.97;5113993;28;20047;-65
2023/07/10 06:30:11;;;;;;;31.20;8.38;;;;;;;20.56;91.96;101995.34;5115208;28;20407;-66
2023/07/10 06:32:59;;;;;;;9.55;4.03;;;;;;;20.55;90.79;101999.22;5113780;28;20051;-65
2023/07/10 06:35:46;;;;;;;11.38;4.72;;;;;;;20.45;91.13;102004.94;5099484;28;20474;-66
2023/07/10 06:38:34;;;;;;;17.75;5.57;;;;;;;20.51;91.34;102007.28;5112367;28;20131;-66
2023/07/10 06:41:22;;;;;;;11.98;4.55;;;;;;;20.58;90.76;102004.16;5115922;28;20060;-66
2023/07/10 06:44:09;;;;;;;12.65;4.50;;;;;;;20.56;90.15;102006.41;5114761;28;20126;-67
2023/07/10 06:46:57;;;;;;;13.05;4.80;;;;;;;20.55;90.88;102010.28;5114432;28;20566;-65
2023/07/10 06:49:45;;;;;;;13.30;4.40;;;;;;;20.53;90.03;102018.88;5114143;28;20035;-67
2023/07/10 06:52:33;;;;;;;11.70;4.40;;;;;;;20.51;87.95;102010.06;5094062;28;20044;-66
2023/07/10 06:55:20;;;;;;;11.75;3.90;;;;;;;20.51;87.79;102015.59;5093217;28;20040;-64
2023/07/10 06:58:08;;;;;;;12.63;4.82;;;;;;;20.53;88.16;102012.53;5108528;28;20120;-65
2023/07/10 07:00:55;;;;;;;12.82;4.63;;;;;;;20.51;88.17;102020.31;5094992;28;20138;-65
2023/07/10 07:03:43;;;;;;;13.00;4.32;;;;;;;20.51;87.43;102018.38;5117547;28;20083;-67
2023/07/10 07:06:31;;;;;;;9.18;3.90;;;;;;;20.53;87.46;102018.06;5100855;28;20043;-65
2023/07/10 07:09:19;;;;;;;9.75;4.15;;;;;;;20.60;86.60;102018.53;5115089;28;20059;-65
2023/07/10 07:12:07;;;;;;;12.85;4.03;;;;;;;20.69;86.10;102019.44;5113753;28;20043;-66
2023/07/10 07:14:55;;;;;;;10.98;3.90;;;;;;;20.71;86.98;102013.59;5113805;28;20043;-67
2023/07/10 07:17:43;;;;;;;7.35;3.22;;;;;;;20.70;85.73;102012.78;5114722;28;20047;-65
2023/07/10 07:20:32;;;;;;;10.60;3.75;;;;;;;20.79;85.23;102015.66;5112803;28;20048;-65
2023/07/10 07:23:20;;;;;;;10.98;3.05;;;;;;;20.86;84.73;102021.59;5113751;28;20047;-65
2023/07/10 07:26:08;;;;;;;12.25;4.57;;;;;;;20.85;83.96;102014.41;5113646;28;20131;-63
2023/07/10 07:28:56;;;;;;;13.35;3.70;;;;;;;20.82;84.82;102015.03;5110828;28;20087;-65
2023/07/10 07:31:43;;;;;;;13.23;4.40;;;;;;;20.79;85.08;102019.25;5104963;28;20048;-66
2023/07/10 07:34:31;;;;;;;11.73;4.20;;;;;;;20.80;84.64;102023.63;5092857;28;20052;-65
2023/07/10 07:37:19;;;;;;;10.93;3.33;;;;;;;20.85;84.59;102020.78;5091920;28;20058;-65
2023/07/10 07:40:09;;;;;;;11.23;3.80;;;;;;;20.88;84.20;102029.59;5098086;28;20515;-65
2023/07/10 07:42:57;;;;;;;16.73;4.45;;;;;;;20.82;84.50;102031.66;5112696;28;20047;-66
2023/07/10 07:45:55;;;;;;;10.82;3.60;;;;;;;20.83;84.85;102031.34;5113520;28;20048;-65
2023/07/10 07:48:43;;;;;;;8.82;3.53;;;;;;;20.91;84.83;102034.53;5095492;28;20142;-65
2023/07/10 07:51:30;;;;;;;12.98;4.10;;;;;;;20.88;84.15;102035.97;5112885;28;20051;-65
2023/07/10 07:54:18;;;;;;;10.93;3.95;;;;;;;20.90;83.89;102028.19;5108628;28;20155;-65
2023/07/10 07:57:06;;;;;;;8.27;3.30;;;;;;;20.97;83.77;102038.81;5099270;28;20052;-64
2023/07/10 07:59:54;;;;;;;11.00;3.45;;;;;;;21.04;80.50;102039.22;5106063;28;20124;-66
2023/07/10 08:02:41;;;;;;;9.10;3.30;;;;;;;21.05;78.88;102030.63;5101004;28;20109;-65
2023/07/10 08:05:29;;;;;;;11.32;3.63;;;;;;;21.04;79.49;102022.59;5117631;28;20083;-64
2023/07/10 08:08:23;;;;;;;9.00;3.63;;;;;;;21.04;80.89;102025.38;5118318;28;20074;-65
2023/07/10 08:11:11;;;;;;;10.65;3.30;;;;;;;21.09;81.17;102024.44;5117303;28;20506;-65
2023/07/10 08:13:58;;;;;;;8.43;3.17;;;;;;;21.14;80.52;102025.16;5117367;28;20061;-64
2023/07/10 08:16:47;;;;;;;7.05;2.90;;;;;;;21.16;79.53;102020.13;5116325;28;20048;-66
2023/07/10 08:19:35;;;;;;;8.77;3.40;;;;;;;21.21;79.34;102022.81;5115962;28;20061;-64
2023/07/10 08:22:23;;;;;;;11.38;3.58;;;;;;;21.21;78.18;102017.25;5117142;28;20127;-65
2023/07/10 08:25:01;;;;;;;8.18;3.00;;;;;;;21.19;78.37;102019.50;5100908;28;20055;-65
2023/07/10 08:27:49;;;;;;;10.45;3.65;;;;;;;21.24;79.62;102011.09;5117249;28;20544;-65
2023/07/10 08:30:37;;;;;;;14.35;3.83;;;;;;;21.27;79.91;102021.53;5116326;28;20553;-66
2023/07/10 08:33:10;;;;;;;9.98;3.25;;;;;;;21.31;79.25;102018.13;5099749;28;20051;-64
2023/07/10 08:36:04;;;;;;;9.32;2.90;;;;;;;21.32;79.86;102015.06;5116554;28;20055;-65
2023/07/10 08:38:52;;;;;;;11.10;2.97;;;;;;;21.36;79.21;102020.78;5102279;28;20052;-66
2023/07/10 08:41:33;;;;;;;12.32;3.30;;;;;;;21.39;77.22;102015.47;5100975;28;20051;-67
2023/07/10 08:44:28;;;;;;;10.07;3.05;;;;;;;21.43;77.55;102023.97;5117069;28;20040;-65
2023/07/10 08:47:19;;;;;;;8.30;3.28;;;;;;;21.47;77.26;102019.47;5101748;28;20047;-65
2023/07/10 08:50:22;;;;;;;8.13;2.92;;;;;;;21.52;77.39;102032.38;5113070;28;20146;-64
2023/07/10 08:53:12;;;;;;;10.30;3.00;;;;;;;21.53;75.06;102022.94;5115768;28;20043;-65
2023/07/10 08:56:19;;;;;;;10.18;3.30;;;;;;;21.53;75.81;102021.00;5116918;28;20083;-64
2023/07/10 08:59:27;;;;;;;11.30;3.30;;;;;;;21.57;76.02;102023.94;5099516;28;20533;-64
2023/07/10 09:02:21;;;;;;;7.78;2.90;;;;;;;21.63;76.55;102022.72;5117388;28;20066;-66
2023/07/10 09:05:23;;;;;;;9.98;3.35;;;;;;;21.66;76.58;102014.56;5116234;28;20052;-64
2023/07/10 09:08:13;;;;;;;10.90;3.15;;;;;;;21.72;76.70;102019.97;5115666;28;20092;-64
2023/07/10 09:11:04;;;;;;;7.97;3.28;;;;;;;21.75;75.77;102024.91;5099892;28;20134;-65
2023/07/10 09:14:17;;;;;;;8.30;2.78;;;;;;;21.74;74.74;102018.53;5088844;28;20048;-63
2023/07/10 09:17:26;;;;;;;12.90;2.95;;;;;;;21.75;73.81;102027.69;5088058;28;20052;-64
2023/07/10 09:20:14;;;;;;;9.27;3.10;;;;;;;21.70;73.31;102029.44;5112804;28;20052;-66
2023/07/10 09:23:04;;;;;;;6.85;2.50;;;;;;;21.72;72.73;102033.84;5101590;28;20090;-64
2023/07/10 09:25:59;;;;;;;9.63;3.10;;;;;;;21.78;72.36;102035.38;5113223;28;20090;-65
2023/07/10 09:29:10;;;;;;;10.40;2.97;;;;;;;21.81;70.54;102031.97;5116389;28;20472;-64
2023/07/10 09:32:16;;;;;;;8.38;2.78;;;;;;;21.82;70.34;102022.53;5110534;28;20083;-65
2023/07/10 09:35:04;;;;;;;7.57;2.50;;;;;;;21.88;69.80;102024.03;5115697;28;20054;-64
2023/07/10 09:37:52;;;;;;;9.93;2.97;;;;;;;21.95;70.62;102024.41;5117738;28;20154;-65
2023/07/10 09:40:48;;;;;;;8.85;3.03;;;;;;;22.00;71.41;102021.50;5124752;28;20047;-64
2023/07/10 09:43:36;;;;;;;9.85;3.25;;;;;;;22.04;70.34;102024.47;5104340;28;20075;-65
2023/07/10 09:46:31;;;;;;;10.75;3.05;;;;;;;22.05;67.10;102024.13;5095315;28;20056;-66
2023/07/10 09:49:22;;;;;;;9.30;3.10;;;;;;;22.08;63.86;102023.53;5082203;28;20047;-65
2023/07/10 09:52:20;;;;;;;10.82;2.83;;;;;;;22.16;63.09;102018.34;5124919;28;20138;-62
2023/07/10 09:55:08;;;;;;;11.65;2.83;;;;;;;22.24;62.46;102025.91;5121487;28;20475;-64
2023/07/10 09:57:59;;;;;;;7.93;2.50;;;;;;;22.30;62.73;102028.25;5107799;28;20143;-66
2023/07/10 10:00:48;;;;;;;8.40;2.72;;;;;;;22.37;60.46;102025.03;5113432;28;20059;-64
2023/07/10 10:03:26;;;;;;;6.45;2.13;;;;;;;22.39;60.77;102028.28;5091636;28;20139;-66
2023/07/10 10:06:21;;;;;;;9.23;2.67;;;;;;;22.45;60.75;102020.66;5106438;28;20054;-65
2023/07/10 10:09:21;;;;;;;12.93;3.35;;;;;;;22.50;60.73;102021.31;5114066;28;20043;-65
2023/07/10 10:12:28;;;;;;;10.52;2.97;;;;;;;22.50;61.82;102029.66;5113394;28;20499;-65
2023/07/10 10:15:49;;;;;;;9.65;3.42;;;;;;;22.54;61.65;102025.09;5100910;28;20047;-65
2023/07/10 10:19:05;;;;;;;8.18;2.47;;;;;;;22.60;62.57;102022.19;5091845;28;20056;-65
2023/07/10 10:21:53;;;;;;;7.28;2.53;;;;;;;22.63;61.37;102013.19;5107573;28;20048;-63
2023/07/10 10:24:41;;;;;;;14.32;3.45;;;;;;;22.70;59.21;102011.56;5096688;28;20113;-64
2023/07/10 10:28:07;;;;;;;8.90;3.20;;;;;;;22.79;58.94;102019.13;5097378;28;20056;-65
2023/07/10 10:30:58;;;;;;;9.43;2.83;;;;;;;22.84;56.87;102011.47;5066489;28;20139;-65
2023/07/10 10:34:22;;;;;;;9.07;2.55;;;;;;;22.86;56.77;102011.16;5059059;28;20135;-65
2023/07/10 10:37:34;;;;;;;12.98;3.10;;;;;;;22.89;57.01;102013.28;5051971;28;20159;-65
2023/07/10 10:40:35;;;;;;;13.48;3.30;;;;;;;22.89;57.51;102014.09;5093838;28;20048;-65
2023/07/10 10:43:28;;;;;;;9.00;2.70;;;;;;;22.94;57.51;102019.50;5107817;28;20051;-65
2023/07/10 10:46:40;;;;;;;9.80;3.00;;;;;;;22.99;57.84;102014.97;5095019;28;20078;-66
2023/07/10 10:49:44;;;;;;;11.40;2.80;;;;;;;23.04;57.34;102009.25;5092009;28;20509;-65
2023/07/10 10:52:54;;;;;;;8.68;2.60;;;;;;;23.05;58.19;102010.91;5112411;28;20131;-65
2023/07/10 10:56:13;;;;;;;11.15;2.95;;;;;;;23.16;57.82;102012.22;5114510;28;20051;-67
2023/07/10 10:59:20;;;;;;;10.13;3.33;;;;;;;23.26;56.40;102011.91;5093671;28;20059;-65
2023/07/10 11:02:20;;;;;;;10.40;2.70;;;;;;;23.28;55.91;102014.34;5111260;28;20052;-66
2023/07/10 11:05:33;;;;;;;10.13;2.88;;;;;;;23.31;55.50;102017.31;5085640;28;20143;-65
2023/07/10 11:08:33;;;;;;;10.25;3.00;;;;;;;23.37;56.68;102027.13;5114447;28;20040;-65
2023/07/10 11:11:32;;;;;;;10.00;2.90;;;;;;;23.38;56.13;102019.63;5112443;28;20048;-65
2023/07/10 11:14:20;;;;;;;9.77;2.78;;;;;;;23.41;55.86;102018.97;5078911;28;20056;-66
2023/07/10 11:17:11;;;;;;;10.07;2.85;;;;;;;23.41;56.30;102009.81;5092950;28;20128;-66
2023/07/10 11:19:59;;;;;;;12.15;3.08;;;;;;;23.46;56.47;102020.75;5095941;28;20046;-67
2023/07/10 11:22:52;;;;;;;7.95;2.38;;;;;;;23.49;57.45;102006.19;5113148;28;20044;-66
2023/07/10 11:25:44;;;;;;;17.58;3.42;;;;;;;23.54;55.71;102011.59;5105676;28;20131;-67
2023/07/10 11:28:32;;;;;;;7.28;2.40;;;;;;;23.57;54.63;101999.81;5103309;28;20508;-66
2023/07/10 11:31:35;;;;;;;7.90;2.45;;;;;;;23.61;55.38;102006.34;5110098;28;20047;-65
2023/07/10 11:34:23;;;;;;;10.23;2.83;;;;;;;23.64;56.36;102002.91;5106331;28;20074;-65
2023/07/10 11:37:41;;;;;;;9.88;3.00;;;;;;;23.68;55.21;102005.88;5113175;28;20052;-65
2023/07/10 11:40:29;;;;;;;11.40;3.03;;;;;;;23.65;55.29;101996.22;5099282;28;20055;-66
2023/07/10 11:43:26;;;;;;;11.60;2.55;;;;;;;23.65;55.29;102001.78;5110755;28;20051;-66
2023/07/10 11:46:23;;;;;;;10.15;2.85;;;;;;;23.70;55.15;101992.44;5116103;28;20058;-66
2023/07/10 11:49:15;;;;;;;11.15;3.65;;;;;;;23.78;55.61;101994.41;5110363;28;20056;-66
2023/07/10 11:52:09;;;;;;;10.60;2.80;;;;;;;23.83;55.37;101997.03;5109914;28;20058;-66
2023/07/10 11:55:02;;;;;;;9.10;2.63;;;;;;;23.87;55.53;101983.28;5113718;28;20130;-64
2023/07/10 11:58:17;;;;;;;9.90;2.90;;;;;;;23.93;55.50;101998.66;5112373;28;20060;-66
2023/07/10 12:01:15;;;;;;;;;;;;;;;23.96;55.24;101996.03;5094120;28;20051;-65
2023/07/10 12:04:08;;;;;;;10.93;3.03;;;;;;;24.02;54.70;102002.22;5102282;28;19926;-66
2023/07/10 12:06:57;;;;;;;13.70;2.97;;;;;;;24.06;54.66;101989.28;5110118;28;20079;-65
2023/07/10 12:09:52;;;;;;;12.95;3.25;;;;;;;24.12;53.69;101987.94;5112390;28;20551;-65
2023/07/10 12:12:40;;;;;;;11.85;2.88;;;;;;;24.04;53.89;101980.44;5111941;28;20132;-65
2023/07/10 12:15:28;;;;;;;9.77;3.10;;;;;;;24.00;54.56;101976.69;5111322;28;20078;-65
2023/07/10 12:18:38;;;;;;;8.32;2.53;;;;;;;24.04;54.91;101969.31;5113785;28;20051;-66
2023/07/10 12:21:26;;;;;;;6.88;2.30;;;;;;;24.08;54.61;101981.44;5098941;28;20408;-66
2023/07/10 12:24:16;;;;;;;10.15;3.28;;;;;;;24.10;54.45;101984.72;5094183;28;20126;-65
2023/07/10 12:27:04;;;;;;;8.95;2.70;;;;;;;24.15;54.31;101987.31;5098072;28;20052;-65
2023/07/10 12:30:21;;;;;;;10.98;2.60;;;;;;;24.21;54.57;101987.94;5093082;28;20063;-67
2023/07/10 12:33:30;;;;;;;11.75;3.10;;;;;;;24.31;52.91;101983.97;5104553;28;20074;-66
2023/07/10 12:36:37;;;;;;;8.40;2.97;;;;;;;24.40;51.39;101985.56;4390113;28;9999913;-65
2023/07/10 12:39:25;;;;;;;10.10;2.90;;;;;;;24.44;51.56;101980.16;5108902;28;20136;-65